Mason, Nevada
Current Conditions -  °F | °C
As of 11:35 AM on Thursday 23 Oct 2014 (Local Time) from KMEV Reporting Station
Clear Clear  
Wind Chill: 68°   Ceiling: Unl
Heat Index: 68°   Visibility: 10mi
Dew Point: 25°   Wind: 3mph
Humidity: 20%   Direction: 360°N
Pressure: 30.11"   Gusts: NA
Location:  38.8785°N, 119.096°W
Report Text: KMEV 231835Z AUTO 36003KT 10SM CLR 20/M04 A3011 RMK AO2
Loading
Personal Weather Stations






























Interactive Weather Map
Tropical Storm Tracking
New forecast layout! Learn more

10-Day Weather Forecast

Advertisements
Track Severe Weather on mobile